Time;durP1;ratioP1;P1;durP2;ratioP2;P2;SDS_P1;SDS_P2;PMS_P1;PMS_P2;Temp;Humidity;BMP_temperature;BMP_pressure;BME280_temperature;BME280_humidity;BME280_pressure;Samples;Min_cycle;Max_cycle;Signal;HPM_P1;HPM_P2
2021/03/30 00:00:45;;;;;;;;;;;;;;;11.10;71.19;101573.74;115416;1204;21608;-61
2021/03/30 00:03:16;;;;;;;;;;;;;;;11.11;71.16;101580.13;115569;1203;25822;-60
2021/03/30 00:05:43;;;;;;;;;;;;;;;11.08;71.00;101581.01;115424;1204;21639;-61
2021/03/30 00:08:12;;;;;;;;;;;;;;;11.04;71.31;101578.34;115337;1204;24370;-61
2021/03/30 00:10:42;;;;;;;;;;;;;;;11.02;71.13;101577.22;115240;1202;23201;-61
2021/03/30 00:13:10;;;;;;;;;;;;;;;11.02;71.37;101580.02;115808;1204;21690;-62
2021/03/30 00:15:38;;;;;;;;;;;;;;;11.02;71.12;101580.02;115492;1202;23231;-63
2021/03/30 00:18:06;;;;;;;;;;;;;;;11.05;71.46;101579.13;115355;1204;21608;-62
2021/03/30 00:20:34;;;;;;;;;;;;;;;11.03;71.41;101573.97;115374;1204;21579;-61
2021/03/30 00:23:02;;;;;;;;;;;;;;;11.05;71.21;101570.74;115342;1204;21611;-60
2021/03/30 00:25:30;;;;;;;;;;;;;;;11.04;71.25;101566.38;115381;1197;21993;-63
2021/03/30 00:27:58;;;;;;;;;;;;;;;11.02;71.13;101572.42;115405;1204;21600;-63
2021/03/30 00:30:25;;;;;;;;;;;;;;;11.02;71.32;101564.03;115412;1204;21601;-62
2021/03/30 00:32:53;;;;;;;;;;;;;;;11.02;71.21;101568.84;115381;1204;21600;-63
2021/03/30 00:35:21;;;;;;;;;;;;;;;11.01;71.20;101568.05;115585;1204;21605;-60
2021/03/30 00:37:49;;;;;;;;;;;;;;;11.00;71.53;101565.71;115426;1204;21743;-62
2021/03/30 00:40:17;;;;;;;;;;;;;;;11.00;71.26;101568.50;115451;1204;24565;-61
2021/03/30 00:42:45;;;;;;;;;;;;;;;10.98;71.44;101563.38;115514;1204;24018;-61
2021/03/30 00:45:14;;;;;;;;;;;;;;;10.96;71.38;101565.84;115510;1204;24652;-62
2021/03/30 00:47:45;;;;;;;;;;;;;;;10.97;71.25;101564.59;115549;1204;21605;-62
2021/03/30 00:50:14;;;;;;;;;;;;;;;10.99;71.36;101566.93;115518;1204;21690;-62
2021/03/30 00:52:43;;;;;;;;;;;;;;;11.00;71.30;101568.50;115503;1204;22053;-62
2021/03/30 00:55:13;;;;;;;;;;;;;;;10.99;71.36;101566.93;115528;1204;26261;-62
2021/03/30 00:57:41;;;;;;;;;;;;;;;11.00;71.16;101579.69;115525;1204;21673;-61
2021/03/30 01:00:10;;;;;;;;;;;;;;;10.99;71.19;101575.31;115438;1204;21601;-62
2021/03/30 01:02:38;;;;;;;;;;;;;;;10.97;71.11;101566.59;115575;1204;21601;-60
2021/03/30 01:05:08;;;;;;;;;;;;;;;10.96;71.54;101573.44;115495;1204;24346;-59
2021/03/30 01:07:36;;;;;;;;;;;;;;;10.98;71.25;101574.55;115837;1203;21600;-62
2021/03/30 01:10:12;;;;;;;;;;;;;;;11.00;71.17;101572.09;115466;1204;21743;-62
2021/03/30 01:12:45;;;;;;;;;;;;;;;11.04;71.14;101569.17;115422;1203;25023;-60
2021/03/30 01:15:26;;;;;;;;;;;;;;;11.08;71.46;101569.83;115431;1203;22890;-62
2021/03/30 01:17:59;;;;;;;;;;;;;;;11.12;71.49;101578.88;115415;1202;23125;-62
2021/03/30 01:20:45;;;;;;;;;;;;;;;11.10;71.65;101565.36;115605;1204;21718;-62
2021/03/30 01:23:29;;;;;;;;;;;;;;;11.09;71.47;101557.43;115535;1204;21740;-60
2021/03/30 01:26:06;;;;;;;;;;;;;;;11.05;71.48;101557.53;115676;1204;25790;-61
2021/03/30 01:28:42;;;;;;;;;;;;;;;11.05;71.80;101559.56;115472;1204;21667;-61
2021/03/30 01:31:10;;;;;;;;;;;;;;;11.04;71.33;101564.36;115404;1205;21743;-62
2021/03/30 01:33:39;;;;;;;;;;;;;;;11.04;71.62;101561.57;115465;1204;25565;-61
2021/03/30 01:36:08;;;;;;;;;;;;;;;11.03;71.07;101560.00;115392;1204;21608;-61
2021/03/30 01:38:36;;;;;;;;;;;;;;;11.04;70.80;101563.58;115621;1204;22387;-62
2021/03/30 01:41:04;;;;;;;;;;;;;;;11.04;70.80;101555.20;115564;1203;21598;-62
2021/03/30 01:43:33;;;;;;;;;;;;;;;11.05;70.56;101557.53;115473;1204;22340;-62
2021/03/30 01:46:01;;;;;;;;;;;;;;;11.06;70.42;101563.91;115543;1202;23249;-62
2021/03/30 01:48:29;;;;;;;;;;;;;;;11.06;70.52;101556.31;115430;1203;25377;-62
2021/03/30 01:50:57;;;;;;;;;;;;;;;11.08;70.24;101553.84;115378;1204;21608;-62
2021/03/30 01:53:26;;;;;;;;;;;;;;;11.10;69.84;101559.77;115376;1204;21607;-62
2021/03/30 01:55:54;;;;;;;;;;;;;;;11.13;69.91;101560.89;115443;1204;21603;-61
2021/03/30 01:58:23;;;;;;;;;;;;;;;11.14;69.49;101554.84;115665;1204;24398;-61
2021/03/30 02:00:53;;;;;;;;;;;;;;;11.16;69.49;101551.58;115506;1204;24539;-62
2021/03/30 02:03:21;;;;;;;;;;;;;;;11.15;69.46;101548.00;115409;1204;21648;-61
2021/03/30 02:05:49;;;;;;;;;;;;;;;11.16;69.22;101559.97;115622;1204;21589;-62
2021/03/30 02:08:18;;;;;;;;;;;;;;;11.16;69.04;101557.96;115577;1204;21851;-62
2021/03/30 02:10:49;;;;;;;;;;;;;;;11.16;68.88;101551.58;115495;1204;21604;-60
2021/03/30 02:13:24;;;;;;;;;;;;;;;11.16;68.89;101554.38;115450;1204;22134;-62
2021/03/30 02:15:54;;;;;;;;;;;;;;;11.17;68.47;101564.34;115696;1204;25819;-62
2021/03/30 02:18:23;;;;;;;;;;;;;;;11.16;68.87;101560.75;115499;1204;21601;-62
2021/03/30 02:20:52;;;;;;;;;;;;;;;11.16;68.66;101549.58;115513;1203;21877;-61
2021/03/30 02:23:23;;;;;;;;;;;;;;;11.16;68.29;101555.16;115506;1204;21759;-61
2021/03/30 02:25:53;;;;;;;;;;;;;;;11.15;68.41;101550.79;115567;1204;23802;-62
2021/03/30 02:28:22;;;;;;;;;;;;;;;11.14;68.11;101557.63;115471;1202;23205;-62
2021/03/30 02:30:50;;;;;;;;;;;;;;;11.12;68.23;101559.31;115501;1204;21607;-62
2021/03/30 02:33:20;;;;;;;;;;;;;;;11.11;68.04;101555.73;115557;1204;24535;-62
2021/03/30 02:35:48;;;;;;;;;;;;;;;11.10;68.09;101565.36;115540;1204;21617;-62
2021/03/30 02:38:17;;;;;;;;;;;;;;;11.09;67.88;101565.81;115503;1204;21671;-61
2021/03/30 02:40:46;;;;;;;;;;;;;;;11.08;67.78;101576.20;115349;1204;21578;-62
2021/03/30 02:43:15;;;;;;;;;;;;;;;11.09;67.66;101577.00;115586;1204;25835;-60
2021/03/30 02:45:45;;;;;;;;;;;;;;;11.08;67.73;101573.41;115588;1204;21604;-62
2021/03/30 02:48:13;;;;;;;;;;;;;;;11.08;67.64;101576.20;115762;1202;23204;-61
2021/03/30 02:50:42;;;;;;;;;;;;;;;11.09;67.44;101574.20;115462;1204;21768;-62
2021/03/30 02:53:10;;;;;;;;;;;;;;;11.11;67.34;101577.33;115476;1197;22756;-60
2021/03/30 02:55:38;;;;;;;;;;;;;;;11.12;67.31;101576.87;115467;1197;24764;-62
2021/03/30 02:58:06;;;;;;;;;;;;;;;11.12;67.17;101582.45;115438;1204;21593;-62
2021/03/30 03:00:35;;;;;;;;;;;;;;;11.10;67.22;101570.95;115585;1204;25946;-63
2021/03/30 03:03:04;;;;;;;;;;;;;;;11.09;67.10;101569.37;115420;1204;21629;-62
2021/03/30 03:05:33;;;;;;;;;;;;;;;11.08;67.12;101575.41;115448;1204;21608;-62
2021/03/30 03:08:02;;;;;;;;;;;;;;;11.07;66.71;101574.63;115462;1204;24614;-62
2021/03/30 03:10:30;;;;;;;;;;;;;;;11.07;66.51;101569.04;115531;1204;25838;-60
2021/03/30 03:12:58;;;;;;;;;;;;;;;11.06;66.58;101575.88;115387;1204;21759;-61
2021/03/30 03:15:27;;;;;;;;;;;;;;;11.05;66.27;101576.34;115444;1204;24563;-61
2021/03/30 03:17:56;;;;;;;;;;;;;;;11.04;66.20;101578.34;115526;1204;23000;-62
2021/03/30 03:20:24;;;;;;;;;;;;;;;11.03;66.36;101585.14;115464;1204;26010;-62
2021/03/30 03:22:52;;;;;;;;;;;;;;;11.02;66.18;101583.59;115366;1204;21789;-62
2021/03/30 03:25:20;;;;;;;;;;;;;;;11.00;65.92;101593.66;115464;1204;22638;-61
2021/03/30 03:27:48;;;;;;;;;;;;;;;10.99;65.99;101580.90;115405;1204;21604;-61
2021/03/30 03:30:18;;;;;;;;;;;;;;;10.98;65.94;101576.55;115377;1204;21747;-61
2021/03/30 03:32:45;;;;;;;;;;;;;;;10.95;65.78;101586.61;115603;1204;21668;-61
2021/03/30 03:35:13;;;;;;;;;;;;;;;10.94;65.54;101589.86;115442;1204;21612;-62
2021/03/30 03:37:42;;;;;;;;;;;;;;;10.92;65.71;101583.95;115528;1203;21696;-61
2021/03/30 03:40:10;;;;;;;;;;;;;;;10.91;65.78;101590.75;115480;1204;21608;-60
2021/03/30 03:42:39;;;;;;;;;;;;;;;10.89;65.46;101598.80;115455;1204;21601;-62
2021/03/30 03:45:09;;;;;;;;;;;;;;;10.85;65.20;101589.75;115613;1204;26276;-61
2021/03/30 03:47:36;;;;;;;;;;;;;;;10.83;65.39;101595.01;115578;1202;23188;-62
2021/03/30 03:50:05;;;;;;;;;;;;;;;10.79;65.43;101597.92;115402;1204;23084;-62
2021/03/30 03:52:34;;;;;;;;;;;;;;;10.76;65.19;101604.39;115756;1204;24338;-61
2021/03/30 03:55:04;;;;;;;;;;;;;;;10.72;65.32;101600.17;115540;1203;24723;-60
2021/03/30 03:57:35;;;;;;;;;;;;;;;10.70;65.29;101611.01;115372;1204;21652;-61
2021/03/30 04:00:05;;;;;;;;;;;;;;;10.66;65.26;101602.72;115290;1205;21600;-60
2021/03/30 04:02:38;;;;;;;;;;;;;;;10.63;65.21;101603.63;115356;1204;21606;-60
2021/03/30 04:05:09;;;;;;;;;;;;;;;10.59;65.17;101606.52;115277;1204;21700;-60
2021/03/30 04:07:42;;;;;;;;;;;;;;;10.56;65.26;101607.42;115301;1204;21608;-60
2021/03/30 04:10:11;;;;;;;;;;;;;;;10.52;65.41;101609.55;115220;1204;26837;-60
2021/03/30 04:12:40;;;;;;;;;;;;;;;10.51;65.42;101599.59;115309;1204;24325;-60
2021/03/30 04:15:09;;;;;;;;;;;;;;;10.50;65.49;101611.21;115171;1203;23253;-64
2021/03/30 04:17:36;;;;;;;;;;;;;;;10.46;65.15;101613.33;115238;1205;21603;-60
2021/03/30 04:20:09;;;;;;;;;;;;;;;10.43;65.24;101608.63;115116;1204;25561;-60
2021/03/30 04:22:37;;;;;;;;;;;;;;;10.40;65.35;101609.53;115392;1204;21739;-60
2021/03/30 04:25:07;;;;;;;;;;;;;;;10.38;65.37;101617.57;115263;1204;21600;-61
2021/03/30 04:27:35;;;;;;;;;;;;;;;10.35;65.39;101624.81;115262;1204;21600;-60
2021/03/30 04:30:04;;;;;;;;;;;;;;;10.32;65.44;101619.34;115155;1204;26934;-59
2021/03/30 04:32:32;;;;;;;;;;;;;;;10.27;65.40;101623.47;115230;1204;21607;-59
2021/03/30 04:35:00;;;;;;;;;;;;;;;10.24;65.29;101624.34;115098;1204;21608;-59
2021/03/30 04:37:28;;;;;;;;;;;;;;;10.23;65.40;101620.00;115157;1205;26718;-58
2021/03/30 04:39:56;;;;;;;;;;;;;;;10.22;65.52;101623.24;115215;1203;23160;-57
2021/03/30 04:42:23;;;;;;;;;;;;;;;10.18;65.69;101626.12;115232;1204;26181;-59
2021/03/30 04:44:51;;;;;;;;;;;;;;;10.19;65.69;101624.91;115220;1204;21601;-59
2021/03/30 04:47:21;;;;;;;;;;;;;;;10.19;65.64;101632.48;115109;1200;21621;-61
2021/03/30 04:49:50;;;;;;;;;;;;;;;10.20;65.68;101639.65;115293;1204;24729;-59
2021/03/30 04:52:19;;;;;;;;;;;;;;;10.21;65.80;101633.61;115174;1204;21612;-59
2021/03/30 04:54:46;;;;;;;;;;;;;;;10.23;65.87;101647.12;115161;1205;21608;-60
2021/03/30 04:57:14;;;;;;;;;;;;;;;10.23;65.69;101636.74;115370;1204;21604;-60
2021/03/30 04:59:42;;;;;;;;;;;;;;;10.26;65.97;101647.01;115130;1204;24678;-59
2021/03/30 05:02:10;;;;;;;;;;;;;;;10.28;65.80;101641.00;115068;1205;24722;-59
2021/03/30 05:04:38;;;;;;;;;;;;;;;10.31;65.97;101643.68;115365;1204;21612;-59
2021/03/30 05:07:07;;;;;;;;;;;;;;;10.35;65.75;101646.36;115036;1205;21661;-60
2021/03/30 05:09:35;;;;;;;;;;;;;;;10.38;65.68;101653.86;116449;1204;24465;-59
2021/03/30 05:12:03;;;;;;;;;;;;;;;10.40;65.83;101643.82;117107;1203;21611;-59
2021/03/30 05:14:31;;;;;;;;;;;;;;;10.43;65.83;101651.30;115226;1204;21603;-59
2021/03/30 05:16:59;;;;;;;;;;;;;;;10.47;65.72;101653.97;115085;1204;26902;-58
2021/03/30 05:19:27;;;;;;;;;;;;;;;10.51;65.55;101663.05;115222;1203;21611;-60
2021/03/30 05:21:55;;;;;;;;;;;;;;;10.53;65.82;101655.77;115169;1204;25915;-58
2021/03/30 05:24:23;;;;;;;;;;;;;;;10.56;65.66;101671.65;115217;1205;21604;-59
2021/03/30 05:26:51;;;;;;;;;;;;;;;10.60;65.54;101665.95;115081;1205;21611;-60
2021/03/30 05:29:19;;;;;;;;;;;;;;;10.61;65.65;101670.32;115140;1204;25266;-59
2021/03/30 05:31:47;;;;;;;;;;;;;;;10.64;65.60;101671.42;115102;1204;22426;-60
2021/03/30 05:34:16;;;;;;;;;;;;;;;10.65;65.54;101676.58;115135;1203;23231;-60
2021/03/30 05:36:44;;;;;;;;;;;;;;;10.66;65.67;101677.34;115084;1197;21605;-58
2021/03/30 05:39:13;;;;;;;;;;;;;;;10.67;65.56;101676.92;115076;1200;24610;-64
2021/03/30 05:41:41;;;;;;;;;;;;;;;10.70;65.59;101683.63;115237;1204;21601;-59
2021/03/30 05:44:09;;;;;;;;;;;;;;;10.72;65.36;101681.94;115140;1204;21608;-59
2021/03/30 05:46:40;;;;;;;;;;;;;;;10.73;65.32;101683.52;115264;1204;21601;-61
2021/03/30 05:49:08;;;;;;;;;;;;;;;10.77;65.63;101686.19;115184;1204;21598;-59
2021/03/30 05:51:38;;;;;;;;;;;;;;;10.79;65.69;101686.52;115184;1204;21601;-59
2021/03/30 05:54:07;;;;;;;;;;;;;;;10.81;65.79;101689.66;115300;1204;21626;-58
2021/03/30 05:56:37;;;;;;;;;;;;;;;10.84;65.71;101688.78;114962;1205;22053;-59
2021/03/30 05:59:05;;;;;;;;;;;;;;;10.87;65.72;101694.24;115223;1203;23630;-59
2021/03/30 06:01:35;;;;;;;;;;;;;;;10.92;65.42;101692.91;115077;1205;24350;-60
2021/03/30 06:04:02;;;;;;;;;;;;;;;10.97;65.64;101697.92;115280;1197;24462;-60
2021/03/30 06:06:31;;;;;;;;;;;;;;;11.00;65.57;101697.84;115235;1204;24764;-58
2021/03/30 06:08:59;;;;;;;;;;;;;;;11.03;65.31;101693.34;115109;1204;21607;-59
2021/03/30 06:11:26;;;;;;;;;;;;;;;11.05;65.40;101696.50;115123;1204;21672;-61
2021/03/30 06:13:55;;;;;;;;;;;;;;;11.07;65.15;101705.98;115319;1204;21671;-59
2021/03/30 06:16:25;;;;;;;;;;;;;;;11.09;65.20;101697.17;115544;1204;25103;-59
2021/03/30 06:19:06;;;;;;;;;;;;;;;11.08;65.12;101699.17;115201;1204;24645;-59
2021/03/30 06:21:35;;;;;;;;;;;;;;;11.09;65.24;101705.55;115325;1205;21607;-59
2021/03/30 06:24:25;;;;;;;;;;;;;;;11.08;64.97;101707.56;115080;1204;21970;-59
2021/03/30 06:26:53;;;;;;;;;;;;;;;11.09;64.64;101703.52;115092;1205;21608;-59
2021/03/30 06:29:27;;;;;;;;;;;;;;;11.13;65.06;101704.19;115166;1205;21625;-59
2021/03/30 06:31:55;;;;;;;;;;;;;;;11.19;64.89;101707.23;115414;1204;21639;-60
2021/03/30 06:34:27;;;;;;;;;;;;;;;11.25;64.96;101705.42;115094;1205;21671;-60
2021/03/30 06:36:55;;;;;;;;;;;;;;;11.34;64.68;101716.70;115090;1203;22568;-59
2021/03/30 06:39:34;;;;;;;;;;;;;;;11.41;64.82;101719.27;115157;1205;24563;-60
2021/03/30 06:42:06;;;;;;;;;;;;;;;11.49;64.31;101715.01;115193;1202;23238;-60
2021/03/30 06:44:34;;;;;;;;;;;;;;;11.57;64.56;101710.74;115196;1204;21688;-61
2021/03/30 06:47:04;;;;;;;;;;;;;;;11.66;63.83;101715.65;115243;1205;21600;-59
2021/03/30 06:49:34;;;;;;;;;;;;;;;11.75;63.63;101727.73;115163;1203;24767;-58
2021/03/30 06:52:12;;;;;;;;;;;;;;;11.82;63.46;101716.31;115111;1204;21608;-59
2021/03/30 06:54:52;;;;;;;;;;;;;;;11.91;63.32;101726.80;115143;1204;22243;-59
2021/03/30 06:57:39;;;;;;;;;;;;;;;12.01;63.09;101729.23;115095;1205;21582;-59
2021/03/30 07:00:10;;;;;;;;;;;;;;;12.14;63.15;101724.38;115694;1204;21873;-62
2021/03/30 07:02:50;;;;;;;;;;;;;;;12.26;63.24;101738.77;115755;1203;23244;-62
2021/03/30 07:05:24;;;;;;;;;;;;;;;12.36;62.42;101738.38;115466;1205;21605;-60
2021/03/30 07:07:55;;;;;;;;;;;;;;;12.48;62.32;101731.14;115355;1204;21600;-62
2021/03/30 07:10:23;;;;;;;;;;;;;;;12.58;60.69;101735.59;115282;1204;21805;-61
2021/03/30 07:12:52;;;;;;;;;;;;;;;12.65;61.53;101729.70;115345;1204;21588;-62
2021/03/30 07:15:22;;;;;;;;;;;;;;;12.68;61.57;101726.76;115311;1204;21607;-61
2021/03/30 07:17:55;;;;;;;;;;;;;;;12.72;61.08;101727.44;115226;1202;23199;-62
2021/03/30 07:20:24;;;;;;;;;;;;;;;12.78;61.44;101733.22;115223;1203;21604;-61
2021/03/30 07:22:55;;;;;;;;;;;;;;;12.86;61.29;101732.49;115330;1204;21599;-62
2021/03/30 07:25:27;;;;;;;;;;;;;;;12.94;60.26;101732.98;115293;1204;21585;-61
2021/03/30 07:28:00;;;;;;;;;;;;;;;13.01;60.30;101732.72;115300;1204;22006;-59
2021/03/30 07:30:29;;;;;;;;;;;;;;;13.08;60.50;101738.06;115458;1200;21749;-61
2021/03/30 07:33:03;;;;;;;;;;;;;;;13.14;59.67;101739.02;115332;1202;23397;-62
2021/03/30 07:35:36;;;;;;;;;;;;;;;13.22;59.97;101745.15;115252;1196;24348;-62
2021/03/30 07:38:10;;;;;;;;;;;;;;;13.28;59.26;101744.09;115729;1204;25787;-61
2021/03/30 07:40:44;;;;;;;;;;;;;;;13.34;59.51;101745.05;115586;1204;21740;-62
2021/03/30 07:43:14;;;;;;;;;;;;;;;13.39;59.04;101747.23;115343;1204;21750;-61
2021/03/30 07:45:44;;;;;;;;;;;;;;;13.45;59.61;101750.98;115433;1204;25841;-62
2021/03/30 07:48:15;;;;;;;;;;;;;;;13.53;59.34;101746.64;115383;1202;23228;-62
2021/03/30 07:50:57;;;;;;;;;;;;;;;13.59;58.79;101753.20;115407;1205;24562;-59
2021/03/30 07:53:39;;;;;;;;;;;;;;;13.66;59.07;101746.52;115283;1204;21603;-61
2021/03/30 07:56:07;;;;;;;;;;;;;;;13.72;58.84;101753.88;115502;1204;21702;-61
2021/03/30 07:58:40;;;;;;;;;;;;;;;13.77;58.65;101750.47;115489;1205;21597;-62
2021/03/30 08:01:09;;;;;;;;;;;;;;;13.84;58.60;101754.21;115590;1204;21704;-61
2021/03/30 08:03:37;;;;;;;;;;;;;;;13.90;59.04;101755.16;115581;1204;21817;-62
2021/03/30 08:06:06;;;;;;;;;;;;;;;13.97;58.61;101757.64;115518;1204;23075;-62
2021/03/30 08:08:46;;;;;;;;;;;;;;;14.05;58.05;101756.13;115554;1204;21600;-61
2021/03/30 08:11:14;;;;;;;;;;;;;;;14.12;58.21;101761.41;115458;1204;21613;-60
2021/03/30 08:13:52;;;;;;;;;;;;;;;14.19;57.80;101761.12;115605;1204;21593;-62
2021/03/30 08:16:21;;;;;;;;;;;;;;;14.27;58.00;101760.34;115549;1204;21874;-60
2021/03/30 08:18:50;;;;;;;;;;;;;;;14.34;58.06;101759.25;115590;1204;21598;-60
2021/03/30 08:21:19;;;;;;;;;;;;;;;14.38;57.65;101759.91;115465;1204;21781;-61
2021/03/30 08:24:10;;;;;;;;;;;;;;;14.43;58.13;101760.05;115605;1204;25737;-62
2021/03/30 08:26:41;;;;;;;;;;;;;;;14.52;57.96;101762.08;115604;1203;21603;-60
2021/03/30 08:29:12;;;;;;;;;;;;;;;14.62;57.74;101762.83;115568;1204;21589;-61
2021/03/30 08:31:48;;;;;;;;;;;;;;;14.69;57.84;101757.66;115560;1203;23339;-62
2021/03/30 08:34:22;;;;;;;;;;;;;;;14.77;57.70;101758.13;115886;1203;23000;-62
2021/03/30 08:36:51;;;;;;;;;;;;;;;14.84;57.74;101758.58;115601;1204;21736;-62
2021/03/30 08:39:33;;;;;;;;;;;;;;;14.91;57.70;101761.06;115614;1203;23370;-62
2021/03/30 08:42:10;;;;;;;;;;;;;;;14.97;57.44;101761.98;115456;1203;21636;-61
2021/03/30 08:44:42;;;;;;;;;;;;;;;15.05;57.60;101765.23;115458;1204;25956;-62
2021/03/30 08:47:29;;;;;;;;;;;;;;;15.11;56.83;101766.94;115520;1204;21600;-61
2021/03/30 08:50:16;;;;;;;;;;;;;;;15.17;56.87;101756.59;115641;1204;22046;-62
2021/03/30 08:52:45;;;;;;;;;;;;;;;15.26;56.98;101758.59;115556;1204;21650;-61
2021/03/30 08:55:14;;;;;;;;;;;;;;;15.33;57.47;101758.27;115601;1204;21691;-62
2021/03/30 08:57:51;;;;;;;;;;;;;;;15.45;57.19;101753.70;115575;1204;21668;-61
2021/03/30 09:00:22;;;;;;;;;;;;;;;15.53;56.72;101750.06;115621;1204;21820;-62
2021/03/30 09:03:01;;;;;;;;;;;;;;;15.62;56.55;101752.05;115645;1204;21643;-62
2021/03/30 09:05:35;;;;;;;;;;;;;;;15.67;56.57;101751.38;115504;1204;23374;-63
2021/03/30 09:08:04;;;;;;;;;;;;;;;15.73;56.11;101752.28;115503;1203;21604;-62
2021/03/30 09:10:34;;;;;;;;;;;;;;;15.78;55.78;101754.45;115595;1204;21604;-61
2021/03/30 09:13:12;;;;;;;;;;;;;;;15.87;54.80;101762.86;115357;1204;21600;-64
2021/03/30 09:15:40;;;;;;;;;;;;;;;15.86;55.13;101750.80;115477;1205;21743;-61
2021/03/30 09:18:09;;;;;;;;;;;;;;;15.84;55.31;101753.32;115449;1204;21589;-62
2021/03/30 09:20:40;;;;;;;;;;;;;;;15.83;55.31;101748.94;115523;1204;21612;-62
2021/03/30 09:23:15;;;;;;;;;;;;;;;15.84;55.00;101746.91;115420;1204;21761;-62
2021/03/30 09:25:46;;;;;;;;;;;;;;;15.93;55.33;101744.79;115528;1204;21724;-62
2021/03/30 09:28:16;;;;;;;;;;;;;;;16.02;55.12;101746.77;115410;1204;21703;-62
2021/03/30 09:30:46;;;;;;;;;;;;;;;16.11;54.07;101755.16;115556;1204;21601;-62
2021/03/30 09:33:15;;;;;;;;;;;;;;;16.15;54.61;101747.30;115376;1204;21736;-61
2021/03/30 09:35:43;;;;;;;;;;;;;;;16.17;54.30;101745.57;115476;1204;21673;-62
2021/03/30 09:38:11;;;;;;;;;;;;;;;16.27;53.82;101751.11;115498;1204;22702;-61
2021/03/30 09:40:41;;;;;;;;;;;;;;;16.32;54.09;101750.45;115550;1201;23236;-61
2021/03/30 09:43:10;;;;;;;;;;;;;;;16.38;54.00;101749.30;115628;1204;21611;-61
2021/03/30 09:45:39;;;;;;;;;;;;;;;16.44;53.47;101741.73;115599;1204;21673;-62
2021/03/30 09:48:09;;;;;;;;;;;;;;;16.48;53.30;101739.50;115534;1203;21672;-62
2021/03/30 09:50:41;;;;;;;;;;;;;;;16.52;52.59;101736.52;115572;1204;21740;-61
2021/03/30 09:53:10;;;;;;;;;;;;;;;16.53;52.98;101738.08;115614;1205;21600;-61
2021/03/30 09:55:39;;;;;;;;;;;;;;;16.53;52.96;101738.08;115640;1204;21745;-62
2021/03/30 09:58:09;;;;;;;;;;;;;;;16.55;52.78;101736.31;115730;1204;21701;-61
2021/03/30 10:00:38;;;;;;;;;;;;;;;16.57;53.07;101738.67;115810;1203;21600;-61
2021/03/30 10:03:08;;;;;;;;;;;;;;;16.64;52.66;101738.27;115667;1197;24604;-62
2021/03/30 10:05:42;;;;;;;;;;;;;;;16.71;52.88;101733.04;115592;1204;21611;-62
2021/03/30 10:08:18;;;;;;;;;;;;;;;16.79;52.98;101734.20;115642;1204;22153;-59
2021/03/30 10:10:47;;;;;;;;;;;;;;;16.89;52.36;101734.88;115566;1205;21769;-61
2021/03/30 10:13:27;;;;;;;;;;;;;;;16.94;52.58;101734.20;115688;1203;23029;-61
2021/03/30 10:15:56;;;;;;;;;;;;;;;16.99;52.31;101731.46;115458;1204;24562;-62
2021/03/30 10:18:26;;;;;;;;;;;;;;;17.05;52.23;101733.61;115557;1204;21646;-61
2021/03/30 10:20:57;;;;;;;;;;;;;;;17.08;52.25;101730.58;115522;1204;21631;-62
2021/03/30 10:23:26;;;;;;;;;;;;;;;17.16;51.81;101716.84;115641;1202;23141;-62
2021/03/30 10:25:54;;;;;;;;;;;;;;;17.21;52.46;101719.77;115600;1204;21596;-62
2021/03/30 10:28:26;;;;;;;;;;;;;;;17.28;52.10;101705.23;115445;1204;21621;-62
2021/03/30 10:30:59;;;;;;;;;;;;;;;17.33;52.19;101710.19;115690;1203;22660;-62
2021/03/30 10:33:39;;;;;;;;;;;;;;;17.39;51.95;101710.27;115677;1204;24350;-62
2021/03/30 10:36:09;;;;;;;;;;;;;;;17.42;51.21;101718.52;115517;1204;25891;-62
2021/03/30 10:38:38;;;;;;;;;;;;;;;17.50;51.43;101707.64;115549;1203;21604;-61
2021/03/30 10:41:08;;;;;;;;;;;;;;;17.59;51.09;101707.49;115603;1203;23385;-62
2021/03/30 10:43:37;;;;;;;;;;;;;;;17.58;50.96;101705.95;115505;1204;21612;-62
2021/03/30 10:46:19;;;;;;;;;;;;;;;17.62;51.20;101698.05;115516;1204;21608;-63
2021/03/30 10:49:00;;;;;;;;;;;;;;;17.69;50.88;101692.00;115580;1204;21608;-62
2021/03/30 10:51:30;;;;;;;;;;;;;;;17.70;50.55;101693.53;115547;1204;21679;-63
2021/03/30 10:53:59;;;;;;;;;;;;;;;17.70;51.22;101685.84;115515;1204;21672;-60
2021/03/30 10:56:28;;;;;;;;;;;;;;;17.76;50.32;101694.38;115788;1204;21730;-62
2021/03/30 10:59:04;;;;;;;;;;;;;;;17.77;49.87;101693.88;115643;1204;21665;-62
2021/03/30 11:01:58;;;;;;;;;;;;;;;17.81;50.33;101678.77;115952;1205;21763;-61
2021/03/30 11:04:42;;;;;;;;;;;;;;;17.85;49.75;101685.77;115746;1203;23198;-61
2021/03/30 11:07:11;;;;;;;;;;;;;;;17.86;49.69;101684.48;115594;1204;21604;-62
2021/03/30 11:09:42;;;;;;;;;;;;;;;17.88;49.74;101670.64;115615;1204;21929;-60
2021/03/30 11:12:11;;;;;;;;;;;;;;;17.91;49.87;101680.18;115441;1202;23214;-62
2021/03/30 11:14:39;;;;;;;;;;;;;;;17.95;49.14;101675.88;115677;1204;21608;-62
2021/03/30 11:17:07;;;;;;;;;;;;;;;17.98;49.76;101674.86;115635;1204;25632;-61
2021/03/30 11:19:42;;;;;;;;;;;;;;;18.01;49.63;101664.63;115760;1205;22156;-62
2021/03/30 11:22:12;;;;;;;;;;;;;;;18.04;49.40;101670.08;115465;1205;21649;-62
2021/03/30 11:24:42;;;;;;;;;;;;;;;18.07;49.51;101677.55;117010;1204;21838;-62
2021/03/30 11:27:12;;;;;;;;;;;;;;;18.10;48.66;101681.44;115496;1204;21672;-62
2021/03/30 11:29:43;;;;;;;;;;;;;;;18.12;49.19;101671.19;115408;1204;21676;-62
2021/03/30 11:32:29;;;;;;;;;;;;;;;18.15;49.58;101667.36;115516;1204;24394;-61
2021/03/30 11:35:01;;;;;;;;;;;;;;;18.23;49.64;101662.81;115525;1204;26046;-63
2021/03/30 11:37:44;;;;;;;;;;;;;;;18.31;49.38;101657.52;115500;1204;21839;-62
2021/03/30 11:40:14;;;;;;;;;;;;;;;18.37;49.67;101658.34;115515;1204;21672;-62
2021/03/30 11:42:42;;;;;;;;;;;;;;;18.40;49.06;101654.50;115504;1204;25787;-61
2021/03/30 11:45:11;;;;;;;;;;;;;;;18.41;49.11;101651.19;115486;1204;21600;-63
2021/03/30 11:47:39;;;;;;;;;;;;;;;18.42;47.88;101644.25;115517;1204;21707;-61
2021/03/30 11:50:08;;;;;;;;;;;;;;;18.45;48.61;101640.47;115456;1205;21704;-63
2021/03/30 11:52:37;;;;;;;;;;;;;;;18.48;48.56;101633.00;115573;1204;21605;-60
2021/03/30 11:55:07;;;;;;;;;;;;;;;18.54;48.58;101631.78;115513;1204;21608;-60
2021/03/30 11:57:35;;;;;;;;;;;;;;;18.61;48.75;101635.44;115457;1204;21615;-61
2021/03/30 12:00:03;;;;;;;;;;;;;;;18.64;48.27;101623.13;115393;1204;21665;-62
2021/03/30 12:02:31;;;;;;;;;;;;;;;18.69;47.58;101622.38;115723;1203;21661;-62
2021/03/30 12:04:59;;;;;;;;;;;;;;;18.72;46.90;101629.88;115427;1204;21772;-61
2021/03/30 12:07:27;;;;;;;;;;;;;;;18.67;48.02;101622.89;115443;1205;24437;-62
2021/03/30 12:09:57;;;;;;;;;;;;;;;18.73;48.33;101611.61;115354;1204;21744;-61
2021/03/30 12:12:26;;;;;;;;;;;;;;;18.79;47.07;101620.94;115709;1204;21739;-61
2021/03/30 12:14:57;;;;;;;;;;;;;;;18.85;48.09;101618.92;115550;1204;21600;-62
2021/03/30 12:17:25;;;;;;;;;;;;;;;18.91;47.42;101617.66;115419;1204;22095;-61
2021/03/30 12:19:53;;;;;;;;;;;;;;;18.95;47.79;101617.45;115466;1204;24395;-62
2021/03/30 12:22:22;;;;;;;;;;;;;;;18.93;47.28;101608.69;115634;1205;21827;-62
2021/03/30 12:24:50;;;;;;;;;;;;;;;18.92;47.67;101604.29;115322;1205;21604;-61
2021/03/30 12:27:19;;;;;;;;;;;;;;;18.92;47.88;101607.91;115508;1204;26052;-62
2021/03/30 12:29:47;;;;;;;;;;;;;;;18.95;47.53;101595.59;115417;1204;22059;-61
2021/03/30 12:32:15;;;;;;;;;;;;;;;19.02;47.78;101597.15;115410;1204;21575;-61
2021/03/30 12:34:44;;;;;;;;;;;;;;;19.04;47.23;101595.37;115361;1203;21589;-62
2021/03/30 12:37:13;;;;;;;;;;;;;;;19.07;46.83;101602.86;115427;1204;21630;-62
2021/03/30 12:39:41;;;;;;;;;;;;;;;19.05;46.66;101604.64;115483;1204;21611;-62
2021/03/30 12:42:09;;;;;;;;;;;;;;;19.06;46.65;101592.02;115368;1204;24329;-63
2021/03/30 12:44:37;;;;;;;;;;;;;;;19.03;46.54;101598.71;115300;1204;24441;-62